Airfield :
LOGIN :

Register | Disclaimer

   EN    FR    IT 

 










Legend :    VFR   Marginal VFR   IFR   Intensive IFR   Very Intensive IFR
Visi :
Ceiling :
>= 8 km
>= 3000ft
5 to 8 km
1000 to 3000 ft
1500m to 5 km
500 to 1000 ft
800 to 1500m
200 to 500 ft
< 800m
< 200 ft
Symbols :   Thunderstorms  Fog  Heavy snow  Heavy precipitations  Wind > 20 kt
SIGMETs :     Misc.  Thunderstorms  Icing  Turbulence  Mountain Waves  Volcanic Ashes






- Airport Elevation : 359 ft
- IATA code : BVA


LFOB - Beauvais

CURRENT METAR :
  • 280830Z AUTO 32017KT 9999 BKN013 OVC019 04/03 Q1001 TEMPO 33020G30KT 3000 SHRA BKN008 BKN020CB

EXPIRED METARs :
  • 280800Z AUTO 32016KT 9999 -RA BKN013 BKN036 OVC054 04/03 Q1001 TEMPO 33020G30KT 3000 SHRA BKN008 BKN020CB
  • 280730Z AUTO 32018KT 9999 BKN012 OVC019 04/03 Q1000 TEMPO 33020G30KT 3000 SHRA BKN008 BKN020CB
  • 280700Z AUTO 32017KT 9999 OVC014 04/03 Q1000 TEMPO 33020G30KT 3000 SHRA BKN008 BKN020CB
  • 280630Z AUTO 32019KT 9999 BKN013 BKN019 BKN031 04/03 Q1000 TEMPO 33020G30KT 3000 SHRA BKN008 BKN020CB
  • 280600Z AUTO 32016KT 9999 BKN013 BKN025 BKN042 04/03 Q0999 TEMPO 33020G30KT 3000 SHRA BKN008 BKN020CB

TAF TAF LFOB
Valid from the 28 at 06:00 until the 29 at 06:00 UTC


280500Z 2806/2906 33015KT 9999 BKN020
TEMPO 2806/2814 33020G30KT 3000 SHRA BKN008 BKN020CB
BECMG 2817/2820 32005KT
ATIS : +33 3 44 11 49 28



MET'MAP, your aeronautical weather chart ! - Copyright ORBIFLY December 2007 - Disclaimer

ORBIFLY MET'MAP TEAM :

Programming & Development : Alexandra Zaïnal
Concept & original design : Baudouin d'Aumeries
Assistance for programming : Marc-Olivier Méhu
Technical & hardware support : Manuel Goepfert

Contact : metmap@orbifly.com




SOURCES & CREDITS :

   NOAA